createdAt,value
2018-06-29T00:01:01.798Z,77.31
2018-06-29T00:03:29.191Z,77.77
2018-06-29T00:05:56.549Z,77.85
2018-06-29T00:08:24.072Z,78.10
2018-06-29T00:10:51.166Z,77.75
2018-06-29T00:13:18.549Z,78.51
2018-06-29T00:15:45.921Z,78.44
2018-06-29T00:18:13.235Z,77.42
2018-06-29T00:20:40.565Z,77.46
2018-06-29T00:23:07.903Z,77.70
2018-06-29T00:25:35.314Z,77.38
2018-06-29T00:28:02.629Z,77.40
2018-06-29T00:30:30.004Z,77.40
2018-06-29T00:32:57.415Z,77.64
2018-06-29T00:35:24.731Z,77.77
2018-06-29T00:37:52.105Z,76.99
2018-06-29T00:40:19.486Z,77.05
2018-06-29T00:42:46.847Z,76.95
2018-06-29T00:45:14.274Z,77.40
2018-06-29T00:47:41.654Z,76.78
2018-06-29T00:50:09.088Z,77.68
2018-06-29T00:52:36.484Z,77.95
2018-06-29T00:55:03.847Z,77.25
2018-06-29T00:57:31.286Z,77.86
2018-06-29T00:59:58.678Z,77.38
2018-06-29T01:02:26.076Z,77.59
2018-06-29T01:04:53.495Z,76.95
2018-06-29T01:07:21.952Z,76.89
2018-06-29T01:09:53.125Z,76.08
2018-06-29T01:12:25.531Z,75.88
2018-06-29T01:14:53.050Z,76.82
2018-06-29T01:17:20.423Z,76.78
2018-06-29T01:19:47.800Z,76.84
2018-06-29T01:22:15.189Z,76.34
2018-06-29T01:24:42.661Z,75.71
2018-06-29T01:27:09.983Z,75.64
2018-06-29T01:29:44.256Z,76.32
2018-06-29T01:32:11.631Z,76.80
2018-06-29T01:34:38.944Z,76.88
2018-06-29T01:37:23.839Z,76.76
2018-06-29T01:39:51.225Z,77.10
2018-06-29T01:42:18.671Z,76.95
2018-06-29T01:44:45.993Z,76.74
2018-06-29T01:47:21.749Z,76.50
2018-06-29T01:49:50.190Z,76.42
2018-06-29T01:52:17.587Z,76.63
2018-06-29T01:54:45.046Z,76.85
2018-06-29T01:57:12.433Z,76.77
2018-06-29T01:59:39.904Z,76.60
2018-06-29T02:02:07.291Z,76.39
2018-06-29T02:04:34.641Z,77.31
2018-06-29T02:07:02.051Z,77.61
2018-06-29T02:09:29.574Z,77.96
2018-06-29T02:11:57.044Z,78.47
2018-06-29T02:14:24.497Z,79.08
2018-06-29T02:16:51.843Z,78.52
2018-06-29T02:19:19.239Z,78.63
2018-06-29T02:21:46.616Z,79.29
2018-06-29T02:24:14.111Z,78.44
2018-06-29T02:26:41.496Z,79.46
2018-06-29T02:29:08.925Z,78.96
2018-06-29T02:31:36.289Z,78.87
2018-06-29T02:34:03.979Z,77.41
2018-06-29T02:36:31.441Z,77.69
2018-06-29T02:38:58.846Z,77.95
2018-06-29T02:41:26.248Z,77.50
2018-06-29T02:43:53.752Z,78.18
2018-06-29T02:46:21.152Z,78.04
2018-06-29T02:48:48.501Z,77.83
2018-06-29T02:51:15.821Z,77.53
2018-06-29T02:53:43.287Z,77.81
2018-06-29T02:56:10.646Z,78.03
2018-06-29T02:58:37.995Z,78.82
2018-06-29T03:01:05.419Z,79.50
2018-06-29T03:03:32.735Z,79.61
2018-06-29T03:06:00.134Z,79.89
2018-06-29T03:08:27.549Z,80.74
2018-06-29T03:10:54.870Z,80.41
2018-06-29T03:13:22.202Z,81.43
2018-06-29T03:15:49.530Z,83.39
2018-06-29T03:18:16.859Z,83.30
2018-06-29T03:20:44.203Z,84.97
2018-06-29T03:23:11.590Z,83.89
2018-06-29T03:25:38.902Z,83.48
2018-06-29T03:28:06.298Z,81.65
2018-06-29T03:30:33.658Z,81.99
2018-06-29T03:33:01.086Z,81.16
2018-06-29T03:35:28.451Z,81.25
2018-06-29T03:37:55.875Z,81.08
2018-06-29T03:40:23.557Z,80.51
2018-06-29T03:42:50.940Z,80.35
2018-06-29T03:45:18.366Z,79.68
2018-06-29T03:47:45.751Z,79.80
2018-06-29T03:50:13.047Z,79.72
2018-06-29T03:53:03.834Z,79.76
2018-06-29T03:55:31.157Z,80.20
2018-06-29T03:57:58.617Z,80.26
2018-06-29T04:00:26.553Z,80.05
2018-06-29T04:02:53.885Z,80.37
2018-06-29T04:05:21.217Z,79.88
2018-06-29T04:07:48.522Z,80.71
2018-06-29T04:10:15.894Z,80.55
2018-06-29T04:12:43.221Z,80.54
2018-06-29T04:15:10.666Z,79.41
2018-06-29T04:17:38.007Z,79.05
2018-06-29T04:20:05.619Z,79.14
2018-06-29T04:22:33.316Z,79.36
2018-06-29T04:25:04.097Z,79.31
2018-06-29T04:27:32.016Z,78.71
2018-06-29T04:29:59.418Z,78.12
2018-06-29T04:32:26.781Z,79.23
2018-06-29T04:34:54.154Z,78.55
2018-06-29T04:37:21.559Z,79.84
2018-06-29T04:39:48.918Z,80.72
2018-06-29T04:42:16.223Z,80.10
2018-06-29T04:44:43.631Z,80.98
2018-06-29T04:47:10.917Z,82.47
2018-06-29T04:49:38.269Z,80.66
2018-06-29T04:52:06.038Z,81.34
2018-06-29T04:54:33.420Z,80.76
2018-06-29T04:57:00.804Z,80.57
2018-06-29T04:59:28.134Z,80.58
2018-06-29T05:01:55.621Z,79.23
2018-06-29T05:04:24.439Z,78.36
2018-06-29T05:06:51.821Z,78.80
2018-06-29T05:09:19.257Z,78.39
2018-06-29T05:11:46.635Z,78.15
2018-06-29T05:14:14.002Z,77.35
2018-06-29T05:16:41.440Z,77.72
2018-06-29T05:19:08.826Z,77.68
2018-06-29T05:21:36.216Z,78.40
2018-06-29T05:24:04.645Z,78.59
2018-06-29T05:26:32.130Z,78.27
2018-06-29T05:28:59.459Z,77.96
2018-06-29T05:31:26.827Z,77.22
2018-06-29T05:33:54.207Z,76.65
2018-06-29T05:36:21.533Z,75.68
2018-06-29T05:38:48.981Z,75.33
2018-06-29T05:41:16.313Z,75.34
2018-06-29T05:43:43.868Z,75.89
2018-06-29T05:46:11.113Z,75.53
2018-06-29T05:48:38.384Z,74.61
2018-06-29T05:51:05.843Z,75.56
2018-06-29T05:53:33.162Z,76.05
2018-06-29T05:56:00.483Z,75.34
2018-06-29T05:58:27.866Z,74.34
2018-06-29T06:00:55.252Z,73.54
2018-06-29T06:03:23.111Z,73.80
2018-06-29T06:05:50.455Z,72.45
2018-06-29T06:08:17.727Z,73.18
2018-06-29T06:10:45.101Z,70.75
2018-06-29T06:13:12.399Z,70.16
2018-06-29T06:15:39.691Z,70.18
2018-06-29T06:18:06.988Z,69.98
2018-06-29T06:20:34.309Z,70.17
2018-06-29T06:23:16.154Z,70.61
2018-06-29T06:25:43.519Z,70.61
2018-06-29T06:28:10.896Z,70.31
2018-06-29T06:30:38.288Z,69.99
2018-06-29T06:33:06.181Z,69.10
2018-06-29T06:35:34.137Z,69.65
2018-06-29T06:38:02.140Z,70.99
2018-06-29T06:40:31.289Z,70.12
2018-06-29T06:42:59.107Z,70.82
2018-06-29T06:45:26.898Z,69.44
2018-06-29T06:47:54.204Z,68.28
2018-06-29T06:50:21.562Z,68.49
2018-06-29T06:52:48.925Z,66.90
2018-06-29T06:55:16.586Z,66.81
2018-06-29T06:57:43.927Z,66.67
2018-06-29T07:00:11.435Z,66.45
2018-06-29T07:02:38.758Z,67.16
2018-06-29T07:05:06.362Z,65.55
2018-06-29T07:07:33.634Z,65.48
2018-06-29T07:10:01.071Z,66.31
2018-06-29T07:12:28.493Z,64.74
2018-06-29T07:15:02.809Z,64.21
2018-06-29T07:17:30.193Z,63.91
2018-06-29T07:19:57.599Z,62.69
2018-06-29T07:22:26.208Z,62.72
2018-06-29T07:24:53.703Z,62.02
2018-06-29T07:27:21.084Z,60.40
2018-06-29T07:29:48.442Z,59.55
2018-06-29T07:32:15.804Z,60.19
2018-06-29T07:34:43.316Z,58.51
2018-06-29T07:37:10.681Z,57.74
2018-06-29T07:39:38.090Z,58.09
2018-06-29T07:42:05.455Z,57.99
2018-06-29T07:44:32.852Z,56.37
2018-06-29T07:47:00.267Z,56.40
2018-06-29T07:49:27.740Z,56.60
2018-06-29T07:51:55.118Z,55.03
2018-06-29T07:54:23.122Z,56.51
2018-06-29T07:56:50.525Z,56.39
2018-06-29T07:59:17.899Z,56.19
2018-06-29T08:01:45.321Z,55.60
2018-06-29T08:04:12.760Z,55.48
2018-06-29T08:06:40.176Z,53.83
2018-06-29T08:09:09.362Z,55.62
2018-06-29T08:11:36.654Z,54.50
2018-06-29T08:14:04.016Z,53.73
2018-06-29T08:16:31.378Z,53.73
2018-06-29T08:18:58.736Z,54.88
2018-06-29T08:21:26.747Z,53.53
2018-06-29T08:23:54.136Z,52.75
2018-06-29T08:26:24.033Z,53.40
2018-06-29T08:28:51.373Z,54.65
2018-06-29T08:31:18.704Z,54.35
2018-06-29T08:33:46.047Z,54.01
2018-06-29T08:36:13.449Z,53.30
2018-06-29T08:38:40.756Z,53.03
2018-06-29T08:41:08.190Z,53.43
2018-06-29T08:43:35.624Z,53.39
2018-06-29T08:46:02.946Z,51.97
2018-06-29T08:48:30.351Z,52.71
2018-06-29T08:50:58.093Z,51.98
2018-06-29T08:53:25.436Z,51.62
2018-06-29T08:55:52.896Z,49.98
2018-06-29T08:58:20.937Z,49.06
2018-06-29T09:00:48.713Z,47.65
2018-06-29T09:03:16.034Z,47.73
2018-06-29T09:05:43.560Z,48.42
2018-06-29T09:08:11.067Z,46.20
2018-06-29T09:10:38.728Z,47.31
2018-06-29T09:13:06.075Z,48.20
2018-06-29T09:15:33.542Z,48.77
2018-06-29T09:18:00.838Z,48.61
2018-06-29T09:20:30.491Z,48.08
2018-06-29T09:22:57.850Z,49.53
2018-06-29T09:25:25.187Z,50.15
2018-06-29T09:27:52.545Z,51.50
2018-06-29T09:30:19.893Z,50.63
2018-06-29T09:32:47.338Z,51.86
2018-06-29T09:35:14.665Z,51.63
2018-06-29T09:37:41.988Z,50.96
2018-06-29T09:40:09.318Z,51.31
2018-06-29T09:42:36.735Z,52.45
2018-06-29T09:45:04.458Z,51.40
2018-06-29T09:47:31.736Z,52.07
2018-06-29T09:49:59.240Z,51.26
2018-06-29T09:52:26.719Z,52.22
2018-06-29T09:54:54.099Z,52.39
2018-06-29T09:57:21.506Z,51.42
2018-06-29T09:59:48.807Z,51.37
2018-06-29T10:02:16.205Z,50.29
2018-06-29T10:04:43.582Z,49.45
2018-06-29T10:07:11.113Z,50.36
2018-06-29T10:09:38.671Z,49.70
2018-06-29T10:12:06.169Z,48.06
2018-06-29T10:14:33.487Z,48.54
2018-06-29T10:17:00.834Z,46.86
2018-06-29T10:19:28.164Z,45.15
2018-06-29T10:21:56.279Z,46.10
2018-06-29T10:24:23.829Z,45.12
2018-06-29T10:26:51.287Z,45.51
2018-06-29T10:29:18.681Z,46.38
2018-06-29T10:31:46.086Z,45.69
2018-06-29T10:34:13.456Z,46.56
2018-06-29T10:36:40.985Z,45.25
2018-06-29T10:39:10.867Z,47.04
2018-06-29T10:41:38.258Z,46.68
2018-06-29T10:44:05.811Z,47.42
2018-06-29T10:46:33.147Z,48.67
2018-06-29T10:49:00.538Z,47.16
2018-06-29T10:51:27.919Z,47.79
2018-06-29T10:53:55.371Z,46.67
2018-06-29T10:56:23.298Z,46.09
2018-06-29T10:58:50.670Z,46.46
2018-06-29T11:01:18.082Z,43.78
2018-06-29T11:03:45.743Z,45.89
2018-06-29T11:06:13.170Z,44.61
2018-06-29T11:08:40.617Z,44.04
2018-06-29T11:11:08.066Z,43.52
2018-06-29T11:13:35.512Z,43.29
2018-06-29T11:16:02.830Z,41.48
2018-06-29T11:18:30.473Z,42.31
2018-06-29T11:20:57.986Z,42.06
2018-06-29T11:23:25.464Z,41.10
2018-06-29T11:25:52.913Z,41.24
2018-06-29T11:28:20.221Z,41.21
2018-06-29T11:30:47.616Z,39.29
2018-06-29T11:33:14.981Z,39.09
2018-06-29T11:35:42.331Z,41.98
2018-06-29T11:38:09.694Z,40.81
2018-06-29T11:40:37.086Z,41.00
2018-06-29T11:43:04.754Z,39.02
2018-06-29T11:45:32.110Z,40.04
2018-06-29T11:47:59.522Z,39.99
2018-06-29T11:50:26.927Z,39.56
2018-06-29T11:52:54.352Z,40.56
2018-06-29T11:55:21.857Z,40.65
2018-06-29T11:57:49.328Z,40.24
2018-06-29T12:00:16.725Z,41.88
2018-06-29T12:02:44.098Z,44.21
2018-06-29T12:05:11.446Z,44.61
2018-06-29T12:07:38.862Z,41.70
2018-06-29T12:10:06.863Z,41.05
2018-06-29T12:12:34.336Z,41.08
2018-06-29T12:20:11.391Z,39.84
2018-06-29T12:22:38.958Z,37.50
2018-06-29T12:25:06.428Z,37.37
2018-06-29T12:27:33.892Z,35.97
2018-06-29T12:30:01.291Z,35.57
2018-06-29T12:32:28.613Z,36.00
2018-06-29T12:34:56.368Z,36.04
2018-06-29T12:37:23.780Z,35.43
2018-06-29T12:39:51.116Z,35.79
2018-06-29T12:42:18.503Z,36.00
2018-06-29T12:44:45.902Z,38.43
2018-06-29T12:47:13.398Z,38.89
2018-06-29T12:49:40.829Z,40.71
2018-06-29T12:52:12.339Z,40.60
2018-06-29T12:54:39.704Z,39.45
2018-06-29T12:57:07.015Z,37.68
2018-06-29T12:59:34.418Z,36.74
2018-06-29T13:02:01.793Z,36.68
2018-06-29T13:04:29.182Z,34.92
2018-06-29T13:06:56.607Z,36.23
2018-06-29T13:09:23.987Z,36.99
2018-06-29T13:11:53.936Z,38.29
2018-06-29T13:14:21.508Z,39.14
2018-06-29T13:16:48.911Z,36.59
2018-06-29T13:19:16.269Z,37.75
2018-06-29T13:21:46.198Z,38.14
2018-06-29T13:24:14.722Z,39.19
2018-06-29T13:26:45.892Z,37.90
2018-06-29T13:29:13.362Z,35.22
2018-06-29T13:31:40.685Z,36.66
2018-06-29T13:34:08.033Z,35.49
2018-06-29T13:36:35.406Z,36.76
2018-06-29T13:39:02.956Z,36.05
2018-06-29T13:41:30.291Z,33.55
2018-06-29T13:43:57.867Z,33.10
2018-06-29T13:46:25.778Z,33.65
2018-06-29T13:48:53.562Z,33.37
2018-06-29T13:51:20.971Z,35.30
2018-06-29T13:53:48.414Z,35.21
2018-06-29T13:56:15.948Z,34.46
2018-06-29T13:58:43.329Z,33.86
2018-06-29T14:01:10.677Z,33.80
2018-06-29T14:03:37.994Z,33.24
2018-06-29T14:06:05.332Z,33.59
2018-06-29T14:08:35.172Z,32.76
2018-06-29T14:11:03.950Z,32.43
2018-06-29T14:13:31.506Z,32.70
2018-06-29T14:15:59.037Z,32.23
2018-06-29T14:18:26.446Z,33.43
2018-06-29T14:20:53.916Z,35.20
2018-06-29T14:23:21.362Z,35.76
2018-06-29T14:25:48.703Z,34.76
2018-06-29T14:28:16.486Z,35.35
2018-06-29T14:30:44.239Z,36.09
2018-06-29T14:33:21.686Z,35.20
2018-06-29T14:35:49.270Z,35.69
2018-06-29T14:38:18.282Z,34.38
2018-06-29T14:40:45.823Z,34.57
2018-06-29T14:43:13.221Z,35.77
2018-06-29T14:45:41.153Z,36.67
2018-06-29T14:48:08.871Z,36.67
2018-06-29T14:50:40.571Z,36.62
2018-06-29T14:55:47.025Z,36.98
2018-06-29T14:58:14.726Z,35.90
2018-06-29T15:00:42.420Z,36.20
2018-06-29T15:03:09.764Z,35.96
2018-06-29T15:05:38.290Z,35.68
2018-06-29T15:08:05.811Z,33.90
2018-06-29T15:10:33.742Z,33.55
2018-06-29T15:13:03.650Z,34.12
2018-06-29T15:15:31.487Z,33.46
2018-06-29T15:17:59.220Z,33.57
2018-06-29T15:20:27.618Z,33.95
2018-06-29T15:22:55.025Z,34.69
2018-06-29T15:25:22.729Z,33.33
2018-06-29T15:27:50.407Z,33.82
2018-06-29T15:30:18.568Z,32.93
2018-06-29T15:32:45.885Z,33.29
2018-06-29T15:35:13.201Z,34.95
2018-06-29T15:37:41.143Z,34.98
2018-06-29T15:40:08.497Z,34.94
2018-06-29T15:42:35.986Z,34.20
2018-06-29T15:45:03.766Z,35.19
2018-06-29T15:47:31.100Z,34.19
2018-06-29T15:49:58.432Z,34.69
2018-06-29T15:52:25.769Z,35.06
2018-06-29T15:54:53.139Z,34.21
2018-06-29T15:57:22.233Z,35.93
2018-06-29T15:59:49.607Z,34.95
2018-06-29T16:02:17.037Z,35.30
2018-06-29T16:04:44.354Z,35.90
2018-06-29T16:07:11.796Z,36.39
2018-06-29T16:09:39.176Z,36.37
2018-06-29T16:12:06.602Z,35.62
2018-06-29T16:14:34.029Z,35.71
2018-06-29T16:17:01.418Z,35.68
2018-06-29T16:19:34.325Z,35.08
2018-06-29T16:22:01.777Z,35.50
2018-06-29T16:24:29.172Z,35.75
2018-06-29T16:26:56.563Z,35.94
2018-06-29T16:29:24.083Z,35.69
2018-06-29T16:31:51.449Z,37.30
2018-06-29T16:34:18.828Z,36.22
2018-06-29T16:36:49.189Z,37.85
2018-06-29T16:39:16.514Z,37.68
2018-06-29T16:41:43.861Z,38.52
2018-06-29T16:44:11.734Z,37.78
2018-06-29T16:46:39.058Z,37.74
2018-06-29T16:49:06.439Z,39.51
2018-06-29T16:51:34.158Z,39.27
2018-06-29T16:54:01.439Z,38.33
2018-06-29T16:56:28.883Z,39.11
2018-06-29T16:58:56.257Z,38.01
2018-06-29T17:01:23.587Z,39.36
2018-06-29T17:03:56.891Z,40.97
2018-06-29T17:06:24.215Z,41.41
2018-06-29T17:08:51.651Z,41.79
2018-06-29T17:11:19.198Z,40.62
2018-06-29T17:13:46.718Z,40.93
2018-06-29T17:16:14.108Z,40.66
2018-06-29T17:18:41.581Z,40.49
2018-06-29T17:21:09.102Z,39.69
2018-06-29T17:23:36.531Z,39.44
2018-06-29T17:26:03.864Z,40.31
2018-06-29T17:28:31.222Z,39.89
2018-06-29T17:30:58.662Z,40.06
2018-06-29T17:33:32.053Z,40.41
2018-06-29T17:35:53.433Z,40.42
2018-06-29T17:38:20.850Z,40.69
2018-06-29T17:40:48.204Z,40.77
2018-06-29T17:43:15.525Z,41.58
2018-06-29T17:45:42.969Z,41.66
2018-06-29T17:48:10.366Z,41.56
2018-06-29T17:50:37.833Z,41.57
2018-06-29T17:53:05.355Z,41.25
2018-06-29T17:55:32.721Z,42.53
2018-06-29T17:58:00.126Z,42.23
2018-06-29T18:00:27.569Z,42.50
2018-06-29T18:02:54.970Z,42.00
2018-06-29T18:05:22.406Z,43.07
2018-06-29T18:07:49.839Z,43.42
2018-06-29T18:10:17.149Z,42.94
2018-06-29T18:12:44.587Z,42.92
2018-06-29T18:15:11.864Z,44.01
2018-06-29T18:17:39.207Z,44.28
2018-06-29T18:20:06.588Z,44.70
2018-06-29T18:22:33.923Z,44.11
2018-06-29T18:25:01.265Z,44.00
2018-06-29T18:27:28.615Z,45.17
2018-06-29T18:29:55.985Z,44.59
2018-06-29T18:32:23.335Z,45.05
2018-06-29T18:34:50.703Z,45.57
2018-06-29T18:37:18.136Z,45.83
2018-06-29T18:39:45.493Z,46.74
2018-06-29T18:42:12.752Z,47.06
2018-06-29T18:44:40.074Z,47.67
2018-06-29T18:47:07.389Z,47.35
2018-06-29T18:49:34.780Z,47.08
2018-06-29T18:52:02.088Z,47.80
2018-06-29T18:54:29.374Z,47.73
2018-06-29T18:56:56.647Z,48.48
2018-06-29T18:59:23.955Z,48.22
2018-06-29T19:01:51.248Z,48.87
2018-06-29T19:04:18.653Z,49.63
2018-06-29T19:06:45.970Z,49.68
2018-06-29T19:09:13.303Z,49.71
2018-06-29T19:11:40.544Z,49.27
2018-06-29T19:14:08.042Z,50.38
2018-06-29T19:16:36.571Z,50.40
2018-06-29T19:19:09.211Z,50.08
2018-06-29T19:21:36.485Z,51.28
2018-06-29T19:24:03.940Z,51.24
2018-06-29T19:26:31.320Z,51.67
2018-06-29T19:28:58.696Z,51.92
2018-06-29T19:31:26.163Z,51.89
2018-06-29T19:33:53.367Z,51.69
2018-06-29T19:36:20.726Z,52.33
2018-06-29T19:38:48.144Z,52.52
2018-06-29T19:41:15.441Z,52.66
2018-06-29T19:43:42.890Z,52.38
2018-06-29T19:46:10.288Z,53.81
2018-06-29T19:48:37.713Z,53.91
2018-06-29T19:51:05.161Z,53.68
2018-06-29T19:53:32.428Z,54.47
2018-06-29T19:55:59.769Z,53.60
2018-06-29T19:58:27.100Z,54.07
2018-06-29T20:00:54.528Z,54.36
2018-06-29T20:03:21.910Z,55.05
2018-06-29T20:05:49.205Z,55.65
2018-06-29T20:08:16.659Z,55.60
2018-06-29T20:10:43.989Z,56.39
2018-06-29T20:13:11.594Z,56.12
2018-06-29T20:15:38.917Z,55.83
2018-06-29T20:18:06.778Z,56.65
2018-06-29T20:20:34.417Z,56.46
2018-06-29T20:23:01.966Z,57.04
2018-06-29T20:25:29.373Z,56.96
2018-06-29T20:27:56.880Z,57.66
2018-06-29T20:30:24.323Z,57.92
2018-06-29T20:32:52.213Z,58.46
2018-06-29T20:35:19.551Z,58.77
2018-06-29T20:37:46.895Z,59.18
2018-06-29T20:40:14.305Z,59.14
2018-06-29T20:42:41.745Z,60.01
2018-06-29T20:45:09.182Z,60.28
2018-06-29T20:47:36.707Z,59.74
2018-06-29T20:50:04.173Z,58.13
2018-06-29T20:52:31.591Z,58.40
2018-06-29T20:54:58.987Z,58.78
2018-06-29T20:57:26.304Z,58.42
2018-06-29T20:59:53.771Z,59.20
2018-06-29T21:02:21.191Z,59.73
2018-06-29T21:04:48.618Z,59.64
2018-06-29T21:07:17.353Z,59.93
2018-06-29T21:09:44.775Z,59.23
2018-06-29T21:12:12.063Z,59.95
2018-06-29T21:14:40.171Z,59.47
2018-06-29T21:17:07.539Z,60.03
2018-06-29T21:19:35.070Z,59.81
2018-06-29T21:22:02.446Z,60.15
2018-06-29T21:24:29.797Z,61.12
2018-06-29T21:26:57.198Z,59.98
2018-06-29T21:29:24.573Z,60.15
2018-06-29T21:31:52.106Z,60.98
2018-06-29T21:34:19.682Z,60.97
2018-06-29T21:36:47.081Z,60.52
2018-06-29T21:39:14.949Z,61.05
2018-06-29T21:41:42.300Z,60.25
2018-06-29T21:44:09.728Z,60.58
2018-06-29T21:46:37.315Z,61.60
2018-06-29T21:49:04.699Z,60.97
2018-06-29T21:51:32.344Z,61.89
2018-06-29T21:53:59.719Z,61.36
2018-06-29T21:56:27.409Z,62.22
2018-06-29T21:58:55.059Z,61.52
2018-06-29T22:01:22.534Z,62.15
2018-06-29T22:03:49.899Z,62.43
2018-06-29T22:06:17.256Z,62.46
2018-06-29T22:08:44.700Z,62.61
2018-06-29T22:11:12.080Z,62.19
2018-06-29T22:13:39.513Z,63.14
2018-06-29T22:16:06.810Z,63.37
2018-06-29T22:18:34.168Z,63.65
2018-06-29T22:21:01.562Z,63.68
2018-06-29T22:23:28.887Z,63.78
2018-06-29T22:25:56.298Z,64.31
2018-06-29T22:28:23.696Z,63.83
2018-06-29T22:30:51.049Z,63.94
2018-06-29T22:33:18.343Z,63.68
2018-06-29T22:35:45.785Z,64.37
2018-06-29T22:38:13.193Z,64.05
2018-06-29T22:40:40.549Z,63.92
2018-06-29T22:43:07.958Z,63.91
2018-06-29T22:45:35.302Z,63.93
2018-06-29T22:48:02.731Z,64.20
2018-06-29T22:50:30.103Z,64.20
2018-06-29T22:52:57.564Z,64.57
2018-06-29T22:55:24.907Z,64.18
2018-06-29T22:57:52.689Z,65.04
2018-06-29T23:00:20.087Z,64.68
2018-06-29T23:02:47.506Z,65.25
2018-06-29T23:05:14.831Z,64.89
2018-06-29T23:07:42.182Z,65.27
2018-06-29T23:10:09.630Z,64.97
2018-06-29T23:12:37.004Z,65.29
2018-06-29T23:15:04.622Z,65.19
2018-06-29T23:17:32.014Z,65.02
2018-06-29T23:19:59.378Z,65.94
2018-06-29T23:22:26.614Z,65.80
2018-06-29T23:24:53.921Z,65.71
2018-06-29T23:27:21.307Z,66.29
2018-06-29T23:29:49.620Z,66.38
2018-06-29T23:32:16.927Z,66.13
2018-06-29T23:34:44.298Z,67.01
2018-06-29T23:37:13.195Z,66.99
2018-06-29T23:39:40.555Z,66.26
2018-06-29T23:42:07.966Z,66.47
2018-06-29T23:44:35.323Z,66.99
2018-06-29T23:47:02.667Z,66.81
2018-06-29T23:49:30.059Z,66.15
2018-06-29T23:51:57.452Z,66.68
2018-06-29T23:54:24.734Z,67.09
2018-06-29T23:56:52.073Z,66.62
2018-06-29T23:59:25.007Z,66.64
